createdAt,value
2022-09-12T00:01:24.385Z,85.62
2022-09-12T00:03:59.934Z,85.25
2022-09-12T00:06:35.597Z,85.40
2022-09-12T00:09:12.344Z,85.69
2022-09-12T00:11:47.099Z,85.85
2022-09-12T00:14:20.017Z,85.46
2022-09-12T00:16:52.067Z,86.00
2022-09-12T00:19:24.013Z,86.10
2022-09-12T00:21:56.173Z,85.92
2022-09-12T00:24:28.232Z,86.19
2022-09-12T00:27:01.222Z,86.71
2022-09-12T00:29:33.186Z,86.69
2022-09-12T00:32:05.163Z,86.71
2022-09-12T00:34:37.322Z,86.78
2022-09-12T00:37:09.337Z,87.26
2022-09-12T00:39:41.309Z,87.02
2022-09-12T00:42:13.588Z,87.26
2022-09-12T00:44:49.983Z,86.80
2022-09-12T00:47:28.602Z,86.90
2022-09-12T00:50:10.291Z,86.88
2022-09-12T00:52:46.609Z,86.55
2022-09-12T00:55:41.868Z,86.60
2022-09-12T00:58:41.143Z,86.67
2022-09-12T01:01:13.159Z,86.99
2022-09-12T01:03:45.309Z,86.88
2022-09-12T01:06:29.416Z,86.73
2022-09-12T01:09:05.029Z,87.11
2022-09-12T01:11:39.179Z,86.91
2022-09-12T01:14:11.277Z,87.51
2022-09-12T01:16:45.305Z,87.59
2022-09-12T01:19:46.368Z,88.05
2022-09-12T01:23:06.362Z,88.13
2022-09-12T01:26:01.143Z,88.74
2022-09-12T01:29:13.588Z,88.84
2022-09-12T01:32:15.174Z,89.02
2022-09-12T01:34:53.389Z,89.05
2022-09-12T01:37:39.774Z,88.89
2022-09-12T01:40:38.663Z,89.38
2022-09-12T01:43:37.936Z,89.75
2022-09-12T01:46:32.032Z,90.20
2022-09-12T01:49:34.230Z,90.08
2022-09-12T01:52:37.647Z,90.55
2022-09-12T01:55:22.924Z,90.51
2022-09-12T01:58:04.305Z,90.68
2022-09-12T02:00:45.873Z,91.04
2022-09-12T02:03:24.649Z,90.73
2022-09-12T02:06:19.942Z,90.81
2022-09-12T02:08:58.590Z,90.61
2022-09-12T02:11:33.396Z,90.35
2022-09-12T02:14:16.129Z,90.70
2022-09-12T02:17:02.462Z,90.98
2022-09-12T02:19:43.901Z,90.69
2022-09-12T02:22:20.117Z,90.86
2022-09-12T02:24:59.701Z,90.68
2022-09-12T02:27:40.607Z,90.75
2022-09-12T02:30:16.571Z,90.94
2022-09-12T02:33:12.261Z,90.90
2022-09-12T02:36:02.130Z,91.15
2022-09-12T02:38:42.331Z,91.24
2022-09-12T02:41:19.060Z,91.54
2022-09-12T02:43:52.850Z,91.28
2022-09-12T02:46:41.837Z,91.02
2022-09-12T02:49:14.178Z,91.08
2022-09-12T02:51:47.935Z,91.16
2022-09-12T02:54:21.246Z,90.80
2022-09-12T02:56:53.267Z,90.86
2022-09-12T02:59:26.170Z,90.62
2022-09-12T03:02:10.760Z,90.90
2022-09-12T03:05:06.710Z,91.04
2022-09-12T03:08:15.581Z,91.22
2022-09-12T03:11:18.204Z,91.29
2022-09-12T03:14:10.681Z,91.26
2022-09-12T03:16:53.908Z,91.08
2022-09-12T03:19:57.551Z,91.37
2022-09-12T03:22:39.600Z,90.87
2022-09-12T03:25:36.787Z,91.84
2022-09-12T03:28:16.096Z,91.86
2022-09-12T03:30:51.481Z,92.17
2022-09-12T03:33:25.455Z,92.58
2022-09-12T03:35:57.453Z,92.08
2022-09-12T03:38:29.366Z,91.59
2022-09-12T03:41:01.415Z,91.94
2022-09-12T03:43:33.421Z,92.50
2022-09-12T03:46:05.450Z,92.40
2022-09-12T03:48:37.490Z,92.88
2022-09-12T03:51:10.724Z,92.54
2022-09-12T03:53:42.824Z,92.30
2022-09-12T03:56:15.015Z,92.48
2022-09-12T03:58:47.466Z,92.42
2022-09-12T04:01:20.848Z,92.42
2022-09-12T04:03:53.152Z,92.38
2022-09-12T04:06:25.067Z,92.25
2022-09-12T04:08:57.259Z,92.84
2022-09-12T04:11:29.155Z,92.54
2022-09-12T04:14:01.090Z,92.64
2022-09-12T04:16:33.080Z,92.36
2022-09-12T04:19:05.082Z,92.18
2022-09-12T04:21:36.973Z,92.27
2022-09-12T04:24:09.004Z,91.96
2022-09-12T04:26:41.160Z,92.13
2022-09-12T04:29:15.147Z,92.15
2022-09-12T04:31:47.061Z,92.30
2022-09-12T04:34:19.590Z,91.79
2022-09-12T04:36:51.661Z,91.85
2022-09-12T04:39:23.652Z,91.85
2022-09-12T04:41:55.629Z,91.79
2022-09-12T04:44:27.579Z,92.08
2022-09-12T04:46:59.479Z,92.28
2022-09-12T04:49:31.700Z,92.52
2022-09-12T04:52:03.607Z,92.10
2022-09-12T04:54:35.931Z,92.09
2022-09-12T04:57:07.908Z,92.54
2022-09-12T04:59:40.049Z,92.50
2022-09-12T05:02:12.111Z,92.61
2022-09-12T05:04:44.056Z,92.89
2022-09-12T05:07:16.047Z,92.92
2022-09-12T05:09:47.984Z,93.20
2022-09-12T05:12:19.996Z,93.04
2022-09-12T05:14:51.952Z,92.97
2022-09-12T05:17:23.915Z,92.94
2022-09-12T05:19:55.907Z,93.21
2022-09-12T05:22:27.842Z,93.22
2022-09-12T05:24:59.786Z,93.87
2022-09-12T05:27:31.710Z,93.76
2022-09-12T05:30:04.821Z,93.55
2022-09-12T05:32:36.739Z,93.71
2022-09-12T05:35:08.789Z,93.53
2022-09-12T05:37:40.725Z,93.06
2022-09-12T05:40:16.196Z,92.83
2022-09-12T05:42:48.196Z,93.14
2022-09-12T05:45:20.197Z,92.79
2022-09-12T05:47:52.166Z,92.82
2022-09-12T05:50:24.190Z,92.55
2022-09-12T05:52:57.620Z,92.81
2022-09-12T05:55:31.022Z,92.39
2022-09-12T05:58:02.930Z,92.62
2022-09-12T06:00:34.921Z,93.25
2022-09-12T06:03:06.903Z,93.01
2022-09-12T06:05:39.865Z,92.40
2022-09-12T06:08:12.030Z,92.33
2022-09-12T06:10:44.072Z,92.19
2022-09-12T06:13:15.959Z,91.84
2022-09-12T06:15:47.870Z,92.21
2022-09-12T06:18:21.086Z,91.48
2022-09-12T06:20:53.000Z,92.04
2022-09-12T06:23:26.980Z,92.16
2022-09-12T06:25:58.927Z,92.21
2022-09-12T06:28:32.965Z,91.81
2022-09-12T06:31:15.863Z,92.43
2022-09-12T06:33:51.126Z,92.66
2022-09-12T06:36:29.249Z,92.10
2022-09-12T06:39:22.421Z,92.37
2022-09-12T06:41:54.639Z,92.93
2022-09-12T06:44:26.582Z,93.01
2022-09-12T06:46:58.850Z,92.25
2022-09-12T06:49:31.686Z,92.56
2022-09-12T06:52:03.661Z,92.64
2022-09-12T06:54:35.593Z,92.08
2022-09-12T06:57:08.504Z,91.39
2022-09-12T06:59:40.421Z,90.67
2022-09-12T07:02:15.406Z,90.57
2022-09-12T07:04:47.432Z,90.88
2022-09-12T07:07:19.670Z,90.30
2022-09-12T07:09:51.656Z,89.54
2022-09-12T07:12:23.645Z,89.28
2022-09-12T07:14:55.758Z,89.56
2022-09-12T07:17:27.716Z,88.66
2022-09-12T07:20:00.265Z,87.63
2022-09-12T07:22:32.260Z,87.27
2022-09-12T07:25:05.141Z,85.81
2022-09-12T07:27:39.854Z,86.16
2022-09-12T07:30:12.223Z,85.35
2022-09-12T07:32:44.517Z,83.44
2022-09-12T07:35:16.488Z,83.35
2022-09-12T07:37:48.517Z,80.31
2022-09-12T07:40:20.484Z,80.99
2022-09-12T07:42:52.555Z,79.32
2022-09-12T07:45:24.544Z,76.13
2022-09-12T07:47:56.875Z,77.29
2022-09-12T07:50:28.799Z,77.59
2022-09-12T07:53:00.868Z,76.05
2022-09-12T07:55:33.210Z,72.98
2022-09-12T07:58:05.144Z,71.92
2022-09-12T08:00:37.918Z,71.65
2022-09-12T08:03:10.298Z,69.52
2022-09-12T08:05:42.407Z,68.68
2022-09-12T08:08:14.935Z,68.26
2022-09-12T08:10:46.839Z,68.83
2022-09-12T08:13:18.791Z,69.46
2022-09-12T08:15:50.760Z,70.17
2022-09-12T08:18:22.693Z,70.07
2022-09-12T08:21:03.760Z,68.93
2022-09-12T08:23:35.930Z,69.31
2022-09-12T08:26:08.369Z,69.60
2022-09-12T08:28:45.711Z,69.95
2022-09-12T08:31:21.358Z,71.24
2022-09-12T08:33:56.801Z,71.52
2022-09-12T08:36:29.718Z,70.30
2022-09-12T08:39:07.597Z,70.23
2022-09-12T08:41:44.040Z,69.70
2022-09-12T08:44:53.714Z,69.07
2022-09-12T08:47:31.761Z,69.45
2022-09-12T08:50:09.732Z,69.75
2022-09-12T08:52:53.392Z,69.65
2022-09-12T08:55:28.191Z,69.19
2022-09-12T08:58:05.244Z,69.34
2022-09-12T09:01:04.729Z,68.46
2022-09-12T09:04:08.891Z,67.60
2022-09-12T09:07:17.757Z,67.96
2022-09-12T09:10:45.259Z,67.71
2022-09-12T09:14:05.316Z,67.19
2022-09-12T09:16:42.967Z,65.58
2022-09-12T09:19:21.703Z,64.52
2022-09-12T09:22:03.615Z,63.79
2022-09-12T09:24:41.670Z,62.32
2022-09-12T09:27:39.245Z,62.68
2022-09-12T09:30:18.951Z,62.79
2022-09-12T09:33:02.204Z,59.59
2022-09-12T09:35:42.880Z,60.57
2022-09-12T09:38:38.544Z,59.55
2022-09-12T09:41:41.898Z,58.96
2022-09-12T09:44:14.055Z,59.26
2022-09-12T09:46:55.018Z,59.24
2022-09-12T09:49:31.466Z,58.33
2022-09-12T09:52:06.371Z,59.49
2022-09-12T09:54:47.625Z,57.91
2022-09-12T09:57:41.318Z,57.09
2022-09-12T10:00:26.739Z,57.45
2022-09-12T10:03:13.747Z,58.24
2022-09-12T10:05:53.048Z,59.50
2022-09-12T10:08:36.948Z,60.02
2022-09-12T10:11:26.998Z,57.65
2022-09-12T10:14:03.177Z,58.84
2022-09-12T10:16:52.784Z,57.42
2022-09-12T10:19:36.168Z,57.22
2022-09-12T10:22:20.566Z,55.22
2022-09-12T10:24:57.207Z,55.51
2022-09-12T10:27:32.442Z,54.13
2022-09-12T10:30:17.779Z,53.77
2022-09-12T10:32:50.942Z,52.70
2022-09-12T10:35:31.685Z,51.87
2022-09-12T10:38:07.119Z,53.16
2022-09-12T10:40:42.856Z,52.58
2022-09-12T10:43:44.915Z,53.31
2022-09-12T10:46:19.675Z,51.03
2022-09-12T10:49:13.960Z,52.21
2022-09-12T10:51:45.864Z,53.21
2022-09-12T10:54:21.064Z,51.23
2022-09-12T10:57:26.982Z,49.03
2022-09-12T11:00:18.270Z,48.52
2022-09-12T11:03:07.037Z,48.26
2022-09-12T11:05:56.040Z,46.95
2022-09-12T11:08:44.368Z,48.88
2022-09-12T11:11:19.247Z,47.05
2022-09-12T11:14:10.631Z,44.09
2022-09-12T11:17:13.755Z,41.37
2022-09-12T11:20:19.638Z,38.42
2022-09-12T11:23:15.596Z,38.41
2022-09-12T11:26:23.013Z,36.30
2022-09-12T11:29:38.198Z,36.43
2022-09-12T11:32:51.026Z,35.51
2022-09-12T11:35:32.506Z,35.93
2022-09-12T11:38:36.458Z,33.33
2022-09-12T11:41:34.579Z,32.24
2022-09-12T11:44:29.576Z,31.91
2022-09-12T11:47:08.442Z,34.98
2022-09-12T11:49:51.125Z,35.75
2022-09-12T11:52:35.986Z,36.73
2022-09-12T11:55:17.167Z,36.36
2022-09-12T11:58:00.970Z,35.96
2022-09-12T12:00:45.031Z,36.02
2022-09-12T12:03:31.894Z,34.70
2022-09-12T12:06:21.542Z,34.23
2022-09-12T12:08:53.824Z,35.65
2022-09-12T12:11:43.185Z,34.96
2022-09-12T12:14:45.507Z,35.74
2022-09-12T12:17:23.617Z,34.00
2022-09-12T12:20:08.448Z,34.79
2022-09-12T12:22:53.175Z,34.89
2022-09-12T12:26:02.211Z,35.90
2022-09-12T12:28:58.973Z,35.89
2022-09-12T12:31:31.234Z,34.07
2022-09-12T12:34:25.250Z,33.81
2022-09-12T12:36:58.464Z,34.12
2022-09-12T12:39:51.374Z,32.78
2022-09-12T12:42:35.349Z,33.41
2022-09-12T12:45:10.183Z,32.60
2022-09-12T12:47:47.886Z,31.59
2022-09-12T12:50:19.757Z,30.67
2022-09-12T12:53:04.132Z,30.39
2022-09-12T12:55:50.331Z,30.40
2022-09-12T12:58:31.539Z,29.43
2022-09-12T13:01:19.577Z,30.43
2022-09-12T13:04:11.323Z,31.26
2022-09-12T13:06:58.550Z,30.10
2022-09-12T13:09:44.706Z,30.23
2022-09-12T13:12:44.435Z,31.59
2022-09-12T13:15:38.505Z,32.33
2022-09-12T13:18:41.206Z,32.33
2022-09-12T13:21:19.805Z,32.41
2022-09-12T13:24:15.953Z,33.18
2022-09-12T13:26:48.068Z,33.13
2022-09-12T13:29:23.331Z,32.86
2022-09-12T13:32:01.678Z,33.00
2022-09-12T13:34:37.781Z,33.54
2022-09-12T13:37:30.716Z,33.17
2022-09-12T13:40:25.427Z,33.94
2022-09-12T13:43:14.061Z,33.23
2022-09-12T13:45:47.729Z,32.80
2022-09-12T13:48:25.673Z,33.13
2022-09-12T13:51:06.138Z,33.84
2022-09-12T13:53:47.934Z,33.61
2022-09-12T13:56:21.125Z,33.48
2022-09-12T13:58:57.580Z,34.09
2022-09-12T14:01:41.606Z,34.25
2022-09-12T14:04:44.589Z,34.44
2022-09-12T14:07:23.093Z,35.19
2022-09-12T14:09:58.648Z,34.36
2022-09-12T14:12:43.468Z,34.72
2022-09-12T14:15:24.675Z,34.66
2022-09-12T14:18:01.641Z,35.80
2022-09-12T14:20:39.563Z,35.13
2022-09-12T14:23:31.210Z,35.20
2022-09-12T14:26:08.335Z,35.57
2022-09-12T14:28:47.498Z,35.26
2022-09-12T14:31:32.405Z,35.17
2022-09-12T14:34:19.125Z,34.83
2022-09-12T14:36:55.216Z,35.26
2022-09-12T14:39:38.067Z,35.17
2022-09-12T14:42:21.591Z,35.66
2022-09-12T14:45:06.594Z,36.01
2022-09-12T14:47:44.578Z,35.88
2022-09-12T14:50:21.961Z,36.13
2022-09-12T14:53:21.848Z,35.81
2022-09-12T14:56:13.618Z,36.45
2022-09-12T14:58:45.614Z,35.58
2022-09-12T15:01:25.826Z,35.21
2022-09-12T15:03:58.163Z,35.71
2022-09-12T15:06:38.074Z,35.29
2022-09-12T15:09:13.833Z,35.46
2022-09-12T15:11:45.737Z,36.16
2022-09-12T15:14:17.938Z,35.58
2022-09-12T15:16:49.887Z,35.83
2022-09-12T15:19:21.864Z,36.73
2022-09-12T15:21:53.809Z,36.66
2022-09-12T15:24:27.239Z,36.62
2022-09-12T15:26:59.234Z,37.02
2022-09-12T15:29:31.188Z,38.01
2022-09-12T15:32:03.187Z,38.16
2022-09-12T15:34:35.255Z,37.90
2022-09-12T15:37:16.562Z,37.58
2022-09-12T15:39:49.393Z,38.18
2022-09-12T15:42:29.275Z,38.25
2022-09-12T15:45:02.818Z,38.33
2022-09-12T15:47:35.148Z,38.13
2022-09-12T15:50:07.675Z,38.20
2022-09-12T15:52:39.788Z,38.73
2022-09-12T15:55:26.576Z,38.27
2022-09-12T15:58:03.599Z,38.97
2022-09-12T16:00:38.534Z,39.24
2022-09-12T16:03:25.715Z,38.83
2022-09-12T16:06:01.611Z,39.07
2022-09-12T16:08:34.490Z,39.43
2022-09-12T16:11:12.651Z,39.69
2022-09-12T16:13:44.674Z,39.18
2022-09-12T16:16:16.738Z,39.72
2022-09-12T16:18:49.103Z,40.11
2022-09-12T16:21:21.289Z,39.86
2022-09-12T16:23:53.495Z,39.89
2022-09-12T16:26:25.451Z,39.65
2022-09-12T16:28:59.189Z,40.13
2022-09-12T16:31:31.226Z,40.00
2022-09-12T16:34:03.277Z,40.38
2022-09-12T16:36:35.185Z,40.38
2022-09-12T16:39:07.366Z,40.18
2022-09-12T16:41:42.205Z,40.74
2022-09-12T16:44:14.471Z,40.71
2022-09-12T16:46:46.598Z,41.09
2022-09-12T16:49:18.648Z,41.28
2022-09-12T16:51:50.631Z,41.87
2022-09-12T16:54:22.992Z,41.95
2022-09-12T16:56:55.080Z,41.72
2022-09-12T16:59:27.057Z,42.36
2022-09-12T17:01:59.142Z,42.61
2022-09-12T17:04:31.120Z,42.89
2022-09-12T17:07:03.082Z,42.82
2022-09-12T17:09:35.320Z,42.79
2022-09-12T17:12:07.395Z,42.81
2022-09-12T17:14:39.313Z,44.21
2022-09-12T17:17:11.946Z,44.05
2022-09-12T17:19:43.965Z,43.87
2022-09-12T17:22:16.189Z,43.79
2022-09-12T17:24:48.185Z,44.46
2022-09-12T17:27:20.302Z,44.42
2022-09-12T17:29:52.285Z,44.80
2022-09-12T17:32:24.217Z,45.58
2022-09-12T17:34:57.071Z,46.61
2022-09-12T17:37:29.169Z,46.02
2022-09-12T17:40:05.873Z,47.02
2022-09-12T17:42:42.816Z,46.83
2022-09-12T17:45:18.392Z,47.50
2022-09-12T17:47:50.995Z,47.71
2022-09-12T17:50:32.092Z,48.60
2022-09-12T17:53:06.488Z,49.01
2022-09-12T17:55:40.732Z,48.48
2022-09-12T17:58:12.810Z,48.59
2022-09-12T18:01:03.182Z,49.49
2022-09-12T18:03:35.348Z,49.86
2022-09-12T18:06:07.898Z,50.73
2022-09-12T18:08:39.847Z,50.11
2022-09-12T18:11:11.895Z,49.97
2022-09-12T18:13:43.897Z,50.36
2022-09-12T18:16:16.064Z,52.11
2022-09-12T18:18:51.022Z,51.98
2022-09-12T18:21:23.104Z,52.96
2022-09-12T18:23:59.102Z,52.73
2022-09-12T18:26:31.634Z,52.87
2022-09-12T18:29:03.927Z,53.39
2022-09-12T18:31:36.329Z,53.30
2022-09-12T18:34:12.749Z,53.49
2022-09-12T18:36:50.748Z,54.02
2022-09-12T18:39:27.460Z,55.68
2022-09-12T18:41:59.897Z,56.22
2022-09-12T18:44:31.922Z,55.83
2022-09-12T18:47:04.366Z,57.06
2022-09-12T18:49:36.309Z,57.41
2022-09-12T18:52:08.391Z,57.43
2022-09-12T18:54:40.355Z,57.61
2022-09-12T18:57:12.286Z,57.64
2022-09-12T18:59:44.733Z,58.02
2022-09-12T19:02:17.126Z,58.53
2022-09-12T19:04:49.324Z,59.16
2022-09-12T19:07:21.529Z,58.67
2022-09-12T19:09:53.694Z,60.38
2022-09-12T19:12:25.678Z,58.64
2022-09-12T19:14:58.163Z,58.86
2022-09-12T19:17:30.606Z,59.39
2022-09-12T19:20:03.508Z,58.86
2022-09-12T19:22:35.421Z,59.27
2022-09-12T19:25:08.207Z,59.50
2022-09-12T19:27:40.242Z,59.39
2022-09-12T19:30:12.517Z,59.12
2022-09-12T19:32:45.000Z,59.53
2022-09-12T19:35:16.958Z,58.83
2022-09-12T19:37:49.076Z,59.71
2022-09-12T19:40:21.075Z,59.15
2022-09-12T19:42:53.555Z,58.64
2022-09-12T19:45:25.605Z,58.22
2022-09-12T19:47:57.686Z,58.51
2022-09-12T19:50:33.351Z,57.78
2022-09-12T19:53:06.073Z,57.92
2022-09-12T19:55:38.426Z,57.68
2022-09-12T19:58:10.862Z,57.72
2022-09-12T20:00:42.822Z,58.24
2022-09-12T20:03:14.780Z,58.50
2022-09-12T20:05:46.742Z,58.71
2022-09-12T20:08:18.696Z,59.01
2022-09-12T20:10:55.053Z,59.17
2022-09-12T20:13:28.857Z,59.69
2022-09-12T20:16:28.680Z,59.10
2022-09-12T20:19:08.618Z,58.77
2022-09-12T20:21:40.848Z,59.13
2022-09-12T20:24:15.821Z,59.13
2022-09-12T20:26:47.862Z,60.20
2022-09-12T20:29:19.764Z,59.81
2022-09-12T20:31:51.737Z,59.85
2022-09-12T20:34:23.735Z,60.19
2022-09-12T20:36:55.700Z,59.62
2022-09-12T20:39:27.805Z,59.83
2022-09-12T20:41:59.744Z,60.42
2022-09-12T20:44:31.696Z,60.42
2022-09-12T20:47:03.777Z,60.95
2022-09-12T20:49:35.709Z,60.56
2022-09-12T20:52:07.660Z,60.81
2022-09-12T20:54:39.579Z,60.33
2022-09-12T20:57:11.557Z,60.41
2022-09-12T20:59:43.473Z,60.83
2022-09-12T21:02:16.641Z,61.29
2022-09-12T21:04:48.669Z,61.05
2022-09-12T21:07:20.607Z,61.64
2022-09-12T21:09:54.380Z,61.45
2022-09-12T21:12:28.354Z,61.88
2022-09-12T21:15:00.461Z,61.95
2022-09-12T21:17:32.475Z,61.80
2022-09-12T21:20:08.048Z,62.14
2022-09-12T21:22:43.331Z,62.03
2022-09-12T21:25:15.364Z,62.23
2022-09-12T21:27:47.295Z,62.02
2022-09-12T21:30:19.421Z,62.28
2022-09-12T21:32:52.030Z,62.89
2022-09-12T21:35:24.141Z,61.93
2022-09-12T21:37:56.136Z,62.33
2022-09-12T21:40:28.229Z,62.17
2022-09-12T21:43:00.426Z,62.59
2022-09-12T21:45:32.443Z,63.18
2022-09-12T21:48:04.766Z,62.18
2022-09-12T21:50:36.723Z,62.21
2022-09-12T21:53:08.726Z,62.03
2022-09-12T21:55:40.708Z,62.37
2022-09-12T21:58:12.715Z,62.74
2022-09-12T22:00:44.832Z,62.48
2022-09-12T22:03:17.924Z,62.21
2022-09-12T22:06:08.111Z,61.92
2022-09-12T22:08:40.445Z,62.19
2022-09-12T22:11:12.990Z,62.35
2022-09-12T22:13:45.307Z,62.05
2022-09-12T22:16:17.853Z,62.34
2022-09-12T22:18:50.861Z,61.95
2022-09-12T22:21:24.389Z,61.77
2022-09-12T22:24:15.071Z,61.68
2022-09-12T22:26:47.177Z,62.32
2022-09-12T22:29:19.760Z,62.35
2022-09-12T22:31:51.758Z,61.79
2022-09-12T22:34:23.716Z,62.26
2022-09-12T22:36:56.522Z,62.44
2022-09-12T22:39:28.502Z,62.17
2022-09-12T22:42:01.673Z,62.48
2022-09-12T22:44:33.910Z,61.98
2022-09-12T22:47:05.932Z,62.50
2022-09-12T22:49:37.992Z,62.59
2022-09-12T22:52:09.911Z,62.10
2022-09-12T22:54:43.686Z,62.31
2022-09-12T22:57:15.624Z,62.57
2022-09-12T22:59:47.560Z,62.35
2022-09-12T23:02:19.483Z,62.65
2022-09-12T23:04:52.483Z,64.17
2022-09-12T23:07:24.491Z,64.23
2022-09-12T23:09:56.386Z,65.65
2022-09-12T23:12:28.369Z,65.40
2022-09-12T23:15:00.398Z,65.95
2022-09-12T23:17:34.976Z,65.90
2022-09-12T23:20:07.830Z,66.81
2022-09-12T23:22:39.779Z,65.49
2022-09-12T23:25:11.855Z,65.41
2022-09-12T23:27:44.438Z,65.66
2022-09-12T23:30:21.290Z,64.76
2022-09-12T23:32:53.274Z,65.23
2022-09-12T23:35:25.298Z,65.16
2022-09-12T23:37:57.941Z,65.82
2022-09-12T23:40:29.873Z,64.44
2022-09-12T23:43:01.826Z,63.79
2022-09-12T23:45:33.890Z,64.59
2022-09-12T23:48:05.871Z,63.98
2022-09-12T23:50:37.804Z,63.53
2022-09-12T23:53:11.857Z,63.07
2022-09-12T23:55:44.966Z,63.66
2022-09-12T23:58:17.426Z,63.43
